Time;durP1;ratioP1;P1;durP2;ratioP2;P2;SDS_P1;SDS_P2;PMS_P1;PMS_P2;Temp;Humidity;BMP_temperature;BMP_pressure;BME280_temperature;BME280_humidity;BME280_pressure;Samples;Min_cycle;Max_cycle;Signal;HPM_P1;HPM_P2
2021/01/19 05:02:37;;;;;;;;;;;1.90;99.90;;;;;;5069229;22;19986;-63
2021/01/19 05:05:18;;;;;;;;;;;1.80;99.90;;;;;;5035928;28;19970;-61
2021/01/19 05:07:51;;;;;;;;;;;1.80;99.90;;;;;;5036696;28;20310;-61
2021/01/19 05:10:33;;;;;;;;;;;1.90;99.90;;;;;;5036206;28;19921;-63
2021/01/19 05:13:01;;;;;;;;;;;1.90;99.90;;;;;;5035915;28;19921;-62
2021/01/19 05:15:28;;;;;;;;;;;1.90;99.90;;;;;;5035549;28;19921;-61
2021/01/19 05:17:56;;;;;;;;;;;1.90;99.90;;;;;;5035709;28;19921;-63
2021/01/19 05:20:30;;;;;;;;;;;1.90;99.90;;;;;;5035644;28;19925;-63
2021/01/19 05:22:57;;;;;;;;;;;1.80;99.90;;;;;;5035955;28;20330;-62
2021/01/19 05:25:23;;;;;;;;;;;1.70;99.90;;;;;;5035581;28;19921;-63
2021/01/19 05:27:50;;;;;;;;;;;1.80;99.90;;;;;;5035526;28;19932;-61
2021/01/19 05:30:16;;;;;;;;;;;1.80;99.90;;;;;;5035819;28;20426;-61
2021/01/19 05:32:43;;;;;;;;;;;1.70;99.90;;;;;;5037011;28;19921;-63
2021/01/19 05:35:14;;;;;;;;;;;1.70;99.90;;;;;;5037000;28;19986;-62
2021/01/19 05:37:41;;;;;;;;;;;1.60;99.90;;;;;;5037447;28;20372;-63
2021/01/19 05:40:08;;;;;;;;;;;1.60;99.90;;;;;;5039172;28;19921;-63
2021/01/19 05:42:34;;;;;;;;;;;1.60;99.90;;;;;;5035916;28;19921;-63
2021/01/19 05:45:06;;;;;;;;;;;1.60;99.90;;;;;;5034910;28;19921;-63
2021/01/19 05:47:32;;;;;;;;;;;1.60;99.90;;;;;;5036097;28;19932;-63
2021/01/19 05:50:00;;;;;;;;;;;1.60;99.90;;;;;;5034969;28;19968;-61
2021/01/19 05:52:31;;;;;;;;;;;1.60;99.90;;;;;;5034531;28;20004;-61
2021/01/19 05:54:58;;;;;;;;;;;1.60;99.90;;;;;;5034579;28;19971;-61
2021/01/19 05:57:24;;;;;;;;;;;1.60;99.90;;;;;;5034801;28;19921;-61
2021/01/19 05:59:52;;;;;;;;;;;1.60;99.90;;;;;;5034774;28;19921;-63
2021/01/19 06:02:20;;;;;;;;;;;1.60;99.90;;;;;;5034248;28;19921;-60
2021/01/19 06:04:48;;;;;;;;;;;1.60;99.90;;;;;;5034643;28;19951;-63
2021/01/19 06:07:14;;;;;;;;;;;1.60;99.90;;;;;;5034589;28;19996;-63
2021/01/19 06:09:42;;;;;;;;;;;1.50;99.90;;;;;;5034207;28;20334;-63
2021/01/19 06:12:08;;;;;;;;;;;1.50;99.90;;;;;;5034126;28;20421;-63
2021/01/19 06:14:35;;;;;;;;;;;1.40;99.90;;;;;;5034267;28;19928;-63
2021/01/19 06:17:08;;;;;;;;;;;1.50;99.90;;;;;;5034406;28;19924;-63
2021/01/19 06:19:34;;;;;;;;;;;1.50;99.90;;;;;;5034357;28;19925;-63
2021/01/19 06:22:04;;;;;;;;;;;1.50;99.90;;;;;;5034302;28;19921;-63
2021/01/19 06:24:30;;;;;;;;;;;1.50;99.90;;;;;;5034366;28;20019;-63
2021/01/19 06:26:57;;;;;;;;;;;1.40;99.90;;;;;;5035237;28;19921;-63
2021/01/19 06:29:24;;;;;;;;;;;1.40;99.90;;;;;;5034429;28;19928;-63
2021/01/19 06:31:50;;;;;;;;;;;1.40;99.90;;;;;;5034041;28;20375;-63
2021/01/19 06:34:23;;;;;;;;;;;1.40;99.90;;;;;;5033742;28;19921;-63
2021/01/19 06:36:49;;;;;;;;;;;1.40;99.90;;;;;;5034451;28;19944;-60
2021/01/19 06:39:22;;;;;;;;;;;1.50;99.90;;;;;;5034167;28;20287;-62
2021/01/19 06:41:50;;;;;;;;;;;1.50;99.90;;;;;;5033690;28;20372;-63
2021/01/19 06:44:21;;;;;;;;;;;1.50;99.90;;;;;;5034777;28;20322;-60
2021/01/19 06:46:49;;;;;;;;;;;1.50;99.90;;;;;;5034162;28;19931;-63
2021/01/19 06:49:16;;;;;;;;;;;1.60;99.90;;;;;;5033936;28;19940;-63
2021/01/19 06:51:48;;;;;;;;;;;1.60;99.90;;;;;;5033937;28;19925;-61
2021/01/19 06:54:16;;;;;;;;;;;1.60;99.90;;;;;;5033912;28;19982;-61
2021/01/19 06:56:50;;;;;;;;;;;1.60;99.90;;;;;;5033399;28;20291;-61
2021/01/19 06:59:23;;;;;;;;;;;1.60;99.90;;;;;;5036987;28;19928;-61
2021/01/19 07:01:56;;;;;;;;;;;1.50;99.90;;;;;;5039617;28;19921;-64
2021/01/19 07:04:22;;;;;;;;;;;1.50;99.90;;;;;;5034900;28;19925;-62
2021/01/19 07:07:06;;;;;;;;;;;1.50;99.90;;;;;;5034422;28;20000;-63
2021/01/19 07:09:54;;;;;;;;;;;1.40;99.90;;;;;;5040000;28;20390;-61
2021/01/19 07:12:20;;;;;;;;;;;1.40;99.90;;;;;;5040624;28;19978;-61
2021/01/19 07:15:04;;;;;;;;;;;1.40;99.90;;;;;;5034057;28;20287;-60
2021/01/19 07:18:02;;;;;;;;;;;1.40;99.90;;;;;;5034139;28;19996;-62
2021/01/19 07:20:30;;;;;;;;;;;1.40;99.90;;;;;;5034051;28;19921;-61
2021/01/19 07:23:00;;;;;;;;;;;1.40;99.90;;;;;;5034169;28;19955;-61
2021/01/19 07:25:27;;;;;;;;;;;1.40;99.90;;;;;;5035412;28;19972;-60
2021/01/19 07:27:53;;;;;;;;;;;1.40;99.90;;;;;;5035626;28;19921;-61
2021/01/19 07:30:21;;;;;;;;;;;1.30;99.90;;;;;;5034491;28;19928;-63
2021/01/19 07:32:48;;;;;;;;;;;1.30;99.90;;;;;;5034100;28;19921;-62
2021/01/19 07:35:15;;;;;;;;;;;1.40;99.90;;;;;;5034089;28;19927;-61
2021/01/19 07:37:41;;;;;;;;;;;1.40;99.90;;;;;;5034396;28;19925;-61
2021/01/19 07:40:16;;;;;;;;;;;1.40;99.90;;;;;;5034723;28;19932;-61
2021/01/19 07:42:43;;;;;;;;;;;1.60;99.90;;;;;;5034819;28;19947;-61
2021/01/19 07:45:09;;;;;;;;;;;2.30;99.90;;;;;;5033895;28;19921;-61
2021/01/19 07:47:36;;;;;;;;;;;2.30;99.90;;;;;;5034108;28;19921;-61
2021/01/19 07:50:04;;;;;;;;;;;2.50;99.90;;;;;;5034937;28;20364;-61
2021/01/19 07:52:36;;;;;;;;;;;2.30;99.90;;;;;;5034246;28;19921;-61
2021/01/19 07:55:12;;;;;;;;;;;2.40;99.90;;;;;;5034157;28;20020;-62
2021/01/19 07:57:38;;;;;;;;;;;2.30;99.90;;;;;;5033998;28;19976;-61
2021/01/19 08:00:05;;;;;;;;;;;2.30;99.90;;;;;;5033736;28;19929;-61
2021/01/19 08:02:31;;;;;;;;;;;2.30;99.90;;;;;;5033460;28;20284;-62
2021/01/19 08:05:00;;;;;;;;;;;2.30;99.90;;;;;;5034997;28;19921;-61
2021/01/19 08:07:37;;;;;;;;;;;2.40;99.90;;;;;;5034849;28;19921;-61
2021/01/19 08:10:04;;;;;;;;;;;2.40;99.90;;;;;;5037187;28;19952;-61
2021/01/19 08:12:35;;;;;;;;;;;2.40;99.90;;;;;;5037176;28;19925;-62
2021/01/19 08:15:03;;;;;;;;;;;2.40;99.90;;;;;;5037261;28;19924;-62
2021/01/19 08:17:35;;;;;;;;;;;2.60;99.90;;;;;;5036995;28;19959;-62
2021/01/19 08:20:04;;;;;;;;;;;3.20;99.90;;;;;;5037190;28;19921;-62
2021/01/19 08:22:30;;;;;;;;;;;3.80;99.90;;;;;;5037184;28;20012;-61
2021/01/19 08:25:00;;;;;;;;;;;4.20;99.90;;;;;;5036981;28;19921;-63
2021/01/19 08:27:27;;;;;;;;;;;4.60;99.90;;;;;;5037156;28;19921;-63
2021/01/19 08:29:53;;;;;;;;;;;5.50;99.90;;;;;;5036926;28;19921;-62
2021/01/19 08:32:20;;;;;;;;;;;6.10;99.90;;;;;;5037023;28;19921;-62
2021/01/19 08:34:47;;;;;;;;;;;6.90;99.90;;;;;;5036951;28;19928;-61
2021/01/19 08:37:16;;;;;;;;;;;7.30;99.90;;;;;;5037291;28;19952;-62
2021/01/19 08:39:49;;;;;;;;;;;7.70;99.90;;;;;;5038254;28;19955;-63
2021/01/19 08:42:16;;;;;;;;;;;7.40;99.90;;;;;;5051048;28;20383;-61
2021/01/19 08:44:42;;;;;;;;;;;8.00;99.90;;;;;;5036430;28;20436;-61
2021/01/19 08:47:08;;;;;;;;;;;8.10;99.90;;;;;;5036849;28;19936;-65
2021/01/19 08:49:34;;;;;;;;;;;9.00;99.90;;;;;;5036646;28;19928;-62
2021/01/19 08:52:02;;;;;;;;;;;9.50;99.90;;;;;;5036562;28;19967;-61
2021/01/19 08:54:30;;;;;;;;;;;9.30;98.90;;;;;;5036598;28;19921;-61
2021/01/19 08:56:56;;;;;;;;;;;9.10;98.80;;;;;;5036673;28;19952;-62
2021/01/19 08:59:23;;;;;;;;;;;8.90;99.60;;;;;;5035924;28;19925;-61
2021/01/19 09:01:49;;;;;;;;;;;8.20;99.60;;;;;;5036034;28;19925;-63
2021/01/19 09:04:22;;;;;;;;;;;7.00;99.90;;;;;;5036320;28;20402;-63
2021/01/19 09:06:48;;;;;;;;;;;6.70;99.90;;;;;;5036589;28;19921;-65
2021/01/19 09:09:19;;;;;;;;;;;6.20;99.90;;;;;;5036365;28;19921;-62
2021/01/19 09:11:45;;;;;;;;;;;5.70;99.90;;;;;;5036207;28;19928;-62
2021/01/19 09:14:11;;;;;;;;;;;5.20;99.90;;;;;;5035899;28;19921;-62
2021/01/19 09:16:39;;;;;;;;;;;4.80;99.90;;;;;;5035869;28;19928;-62
2021/01/19 09:19:06;;;;;;;;;;;4.50;99.90;;;;;;5035813;28;19921;-61
2021/01/19 09:21:33;;;;;;;;;;;4.30;99.90;;;;;;5035831;28;19925;-62
2021/01/19 09:23:59;;;;;;;;;;;4.00;99.90;;;;;;5035804;28;19921;-62
2021/01/19 09:26:25;;;;;;;;;;;4.00;99.90;;;;;;5036044;28;20322;-62
2021/01/19 09:28:52;;;;;;;;;;;3.90;99.90;;;;;;5041408;28;19921;-62
2021/01/19 09:31:19;;;;;;;;;;;3.90;99.90;;;;;;5036573;28;20066;-62
2021/01/19 09:33:47;;;;;;;;;;;3.80;99.90;;;;;;5037238;28;19925;-62
2021/01/19 09:36:13;;;;;;;;;;;3.80;99.90;;;;;;5035797;28;19921;-63
2021/01/19 09:38:40;;;;;;;;;;;3.60;99.90;;;;;;5035288;28;19928;-63
2021/01/19 09:41:06;;;;;;;;;;;3.80;99.90;;;;;;5035085;28;19924;-63
2021/01/19 09:43:33;;;;;;;;;;;3.90;99.90;;;;;;5035562;28;19925;-62
2021/01/19 09:46:00;;;;;;;;;;;3.90;99.90;;;;;;5035541;28;19971;-62
2021/01/19 09:48:27;;;;;;;;;;;3.80;99.90;;;;;;5035148;28;19928;-62
2021/01/19 09:50:57;;;;;;;;;;;3.70;99.90;;;;;;5035032;28;19934;-62
2021/01/19 09:53:24;;;;;;;;;;;3.70;99.90;;;;;;5035283;28;19921;-62
2021/01/19 09:55:50;;;;;;;;;;;3.60;99.90;;;;;;5034849;28;19921;-61
2021/01/19 09:58:19;;;;;;;;;;;3.60;99.90;;;;;;5035246;28;19928;-63
2021/01/19 10:00:46;;;;;;;;;;;3.50;99.90;;;;;;5034632;28;19975;-63
2021/01/19 10:03:12;;;;;;;;;;;3.40;99.90;;;;;;5035153;28;19925;-63
2021/01/19 10:05:38;;;;;;;;;;;3.30;99.90;;;;;;5034896;28;19921;-62
2021/01/19 10:08:07;;;;;;;;;;;3.40;99.90;;;;;;5035071;28;19921;-62
2021/01/19 10:10:34;;;;;;;;;;;3.40;99.90;;;;;;5035694;28;19928;-63
2021/01/19 10:13:02;;;;;;;;;;;3.40;99.90;;;;;;5044890;28;19921;-63
2021/01/19 10:15:29;;;;;;;;;;;3.40;99.90;;;;;;5034761;28;19979;-65
2021/01/19 10:17:56;;;;;;;;;;;3.40;99.90;;;;;;5034837;28;19943;-62
2021/01/19 10:20:23;;;;;;;;;;;3.40;99.90;;;;;;5035155;28;19925;-63
2021/01/19 10:22:56;;;;;;;;;;;3.40;99.90;;;;;;5034876;28;19944;-65
2021/01/19 10:25:27;;;;;;;;;;;3.30;99.90;;;;;;5034955;28;19925;-63
2021/01/19 10:27:55;;;;;;;;;;;3.40;99.90;;;;;;5034589;28;19921;-63
2021/01/19 10:30:26;;;;;;;;;;;3.10;99.90;;;;;;5033930;28;19920;-62
2021/01/19 10:32:52;;;;;;;;;;;3.20;99.90;;;;;;5035692;28;19924;-62
2021/01/19 10:35:31;;;;;;;;;;;3.10;99.90;;;;;;5034538;28;20356;-64
2021/01/19 10:37:58;;;;;;;;;;;3.20;99.90;;;;;;5034812;28;19928;-64
2021/01/19 10:40:26;;;;;;;;;;;3.10;99.90;;;;;;5034231;28;20429;-64
2021/01/19 10:42:52;;;;;;;;;;;3.20;99.90;;;;;;5034624;28;19967;-64
2021/01/19 10:45:25;;;;;;;;;;;3.00;99.90;;;;;;5034652;28;19971;-64
2021/01/19 10:47:51;;;;;;;;;;;2.90;99.90;;;;;;5034438;28;19921;-64
2021/01/19 10:50:18;;;;;;;;;;;2.90;99.90;;;;;;5034177;28;19925;-64
2021/01/19 10:52:51;;;;;;;;;;;2.80;99.90;;;;;;5034529;28;19928;-64
2021/01/19 10:55:17;;;;;;;;;;;2.80;99.90;;;;;;5034042;28;20008;-64
2021/01/19 10:57:44;;;;;;;;;;;2.80;99.90;;;;;;5033781;28;19921;-64
2021/01/19 11:00:11;;;;;;;;;;;3.00;99.90;;;;;;5034122;28;19921;-64
2021/01/19 11:02:37;;;;;;;;;;;2.90;99.90;;;;;;5034168;28;19921;-64
2021/01/19 11:05:04;;;;;;;;;;;3.00;99.90;;;;;;5034341;28;20009;-64
2021/01/19 11:07:30;;;;;;;;;;;2.90;99.90;;;;;;5034566;28;19921;-63
2021/01/19 11:09:56;;;;;;;;;;;3.10;99.90;;;;;;5034596;28;19925;-62
2021/01/19 11:12:22;;;;;;;;;;;3.20;99.90;;;;;;5034353;28;19979;-63
2021/01/19 11:14:48;;;;;;;;;;;3.20;99.90;;;;;;5034250;28;19921;-63
2021/01/19 11:17:14;;;;;;;;;;;3.30;99.90;;;;;;5034093;28;19925;-62
2021/01/19 11:19:40;;;;;;;;;;;3.40;99.90;;;;;;5034232;28;19967;-63
2021/01/19 11:22:07;;;;;;;;;;;3.50;99.90;;;;;;5034110;28;19921;-63
2021/01/19 11:24:33;;;;;;;;;;;3.60;99.90;;;;;;5034022;28;19921;-65
2021/01/19 11:26:59;;;;;;;;;;;3.90;99.90;;;;;;5034501;28;19921;-63
2021/01/19 11:29:26;;;;;;;;;;;4.10;99.90;;;;;;5034430;28;19928;-63
2021/01/19 11:31:52;;;;;;;;;;;4.30;99.90;;;;;;5033807;28;19943;-63
2021/01/19 11:34:18;;;;;;;;;;;4.40;99.90;;;;;;5038099;28;20276;-63
2021/01/19 11:36:44;;;;;;;;;;;4.60;99.90;;;;;;5035382;28;19921;-65
2021/01/19 11:39:11;;;;;;;;;;;4.60;99.90;;;;;;5034404;28;19921;-64
2021/01/19 11:41:38;;;;;;;;;;;4.90;99.90;;;;;;5036189;28;19920;-65
2021/01/19 11:44:05;;;;;;;;;;;4.80;99.90;;;;;;5044586;28;19921;-63
2021/01/19 11:46:31;;;;;;;;;;;4.90;99.90;;;;;;5037962;28;19925;-64
2021/01/19 11:48:59;;;;;;;;;;;5.00;99.90;;;;;;5037642;28;19925;-62
2021/01/19 11:51:26;;;;;;;;;;;4.90;99.90;;;;;;5038067;28;19921;-63
2021/01/19 11:53:53;;;;;;;;;;;5.00;99.90;;;;;;5037975;28;19924;-64
2021/01/19 11:56:19;;;;;;;;;;;4.90;99.90;;;;;;5037475;28;19921;-63
2021/01/19 11:58:46;;;;;;;;;;;5.00;99.90;;;;;;5038233;28;19921;-63
2021/01/19 12:01:16;;;;;;;;;;;5.00;99.90;;;;;;5037122;28;19920;-64
2021/01/19 12:03:42;;;;;;;;;;;5.10;99.90;;;;;;5037288;28;19929;-64
2021/01/19 12:06:09;;;;;;;;;;;5.10;99.90;;;;;;5036752;28;19928;-63
2021/01/19 12:08:35;;;;;;;;;;;5.30;99.90;;;;;;5036884;28;20395;-65
2021/01/19 12:11:02;;;;;;;;;;;5.30;99.90;;;;;;5036700;28;20376;-64
2021/01/19 12:13:28;;;;;;;;;;;5.50;99.90;;;;;;5036809;28;19959;-64
2021/01/19 12:15:54;;;;;;;;;;;5.50;99.90;;;;;;5037619;28;19921;-64
2021/01/19 12:18:20;;;;;;;;;;;5.50;99.90;;;;;;5038149;28;19921;-65
2021/01/19 12:20:46;;;;;;;;;;;5.50;99.90;;;;;;5045105;28;19921;-65
2021/01/19 12:23:13;;;;;;;;;;;5.40;99.90;;;;;;5037871;28;19921;-64
2021/01/19 12:25:39;;;;;;;;;;;5.30;99.90;;;;;;5037653;28;19956;-66
2021/01/19 12:28:05;;;;;;;;;;;5.20;99.90;;;;;;5036965;28;19921;-65
2021/01/19 12:30:31;;;;;;;;;;;5.10;99.90;;;;;;5036778;28;19943;-66
2021/01/19 12:32:57;;;;;;;;;;;5.20;99.90;;;;;;5037061;28;20283;-65
2021/01/19 12:35:23;;;;;;;;;;;5.10;99.90;;;;;;5040098;28;19925;-65
2021/01/19 12:37:52;;;;;;;;;;;5.20;99.90;;;;;;5037830;28;19967;-64
2021/01/19 12:40:19;;;;;;;;;;;5.20;99.90;;;;;;5037016;28;19920;-64
2021/01/19 12:42:45;;;;;;;;;;;5.20;99.90;;;;;;5036536;28;19921;-65
2021/01/19 12:45:12;;;;;;;;;;;5.10;99.90;;;;;;5036686;28;19921;-65
2021/01/19 12:47:38;;;;;;;;;;;5.10;99.90;;;;;;5036466;28;20334;-64
2021/01/19 12:50:05;;;;;;;;;;;5.20;99.90;;;;;;5036873;28;19921;-63
2021/01/19 12:52:31;;;;;;;;;;;5.20;99.90;;;;;;5035898;28;19951;-63
2021/01/19 12:54:57;;;;;;;;;;;5.20;99.90;;;;;;5035935;28;20391;-62
2021/01/19 12:57:24;;;;;;;;;;;5.20;99.90;;;;;;5036706;28;19925;-63
2021/01/19 12:59:50;;;;;;;;;;;5.20;99.90;;;;;;5036613;28;19921;-64
2021/01/19 13:02:16;;;;;;;;;;;5.20;99.90;;;;;;5036257;28;19928;-63
2021/01/19 13:04:42;;;;;;;;;;;5.10;99.90;;;;;;5036292;28;19921;-62
2021/01/19 13:07:13;;;;;;;;;;;5.10;99.90;;;;;;5036657;28;19928;-63
2021/01/19 13:09:39;;;;;;;;;;;5.00;99.90;;;;;;5036053;28;19921;-63
2021/01/19 13:12:06;;;;;;;;;;;5.00;99.90;;;;;;5037104;28;19925;-63
2021/01/19 13:14:33;;;;;;;;;;;5.10;99.90;;;;;;5036941;28;19928;-64
2021/01/19 13:16:59;;;;;;;;;;;5.00;99.90;;;;;;5036100;28;20279;-64
2021/01/19 13:19:25;;;;;;;;;;;5.10;99.90;;;;;;5036179;28;19920;-63
2021/01/19 13:21:51;;;;;;;;;;;5.20;99.90;;;;;;5035872;28;19920;-63
2021/01/19 13:24:17;;;;;;;;;;;5.20;99.90;;;;;;5035917;28;20371;-65
2021/01/19 13:26:43;;;;;;;;;;;5.20;99.90;;;;;;5035944;28;19925;-65
2021/01/19 13:29:09;;;;;;;;;;;5.30;99.90;;;;;;5036184;28;19921;-64
2021/01/19 13:31:36;;;;;;;;;;;5.20;99.90;;;;;;5035851;28;19921;-64
2021/01/19 13:34:02;;;;;;;;;;;5.20;99.90;;;;;;5035599;28;19921;-65
2021/01/19 13:36:28;;;;;;;;;;;5.40;99.90;;;;;;5037054;28;20283;-64
2021/01/19 13:38:54;;;;;;;;;;;5.40;99.90;;;;;;5038337;28;19920;-64
2021/01/19 13:41:20;;;;;;;;;;;5.50;99.90;;;;;;5037030;28;19929;-64
2021/01/19 13:43:46;;;;;;;;;;;5.50;99.90;;;;;;5035832;28;19921;-63
2021/01/19 13:46:15;;;;;;;;;;;5.50;99.90;;;;;;5035887;28;19920;-62
2021/01/19 13:48:42;;;;;;;;;;;5.50;99.90;;;;;;5035692;28;19921;-63
2021/01/19 13:51:10;;;;;;;;;;;5.60;99.90;;;;;;5046788;28;19928;-64
2021/01/19 13:53:40;;;;;;;;;;;5.50;99.90;;;;;;5037159;28;20368;-63
2021/01/19 13:56:06;;;;;;;;;;;5.60;99.90;;;;;;5036216;28;19925;-64
2021/01/19 13:58:32;;;;;;;;;;;5.60;99.90;;;;;;5035234;28;19928;-64
2021/01/19 14:00:58;;;;;;;;;;;5.60;99.90;;;;;;5035221;28;20272;-65
2021/01/19 14:03:24;;;;;;;;;;;5.70;99.90;;;;;;5034587;28;20372;-64
2021/01/19 14:05:51;;;;;;;;;;;5.70;99.90;;;;;;5035027;28;19921;-65
2021/01/19 14:08:17;;;;;;;;;;;5.70;99.90;;;;;;5034918;28;19928;-65
2021/01/19 14:10:43;;;;;;;;;;;5.70;99.90;;;;;;5035052;28;19921;-64
2021/01/19 14:13:09;;;;;;;;;;;5.70;99.90;;;;;;5034845;28;19928;-65
2021/01/19 14:15:35;;;;;;;;;;;5.80;99.90;;;;;;5034847;28;19921;-65
2021/01/19 14:18:01;;;;;;;;;;;5.80;99.90;;;;;;5034911;28;19921;-64
2021/01/19 14:20:27;;;;;;;;;;;5.70;99.90;;;;;;5034883;28;19921;-65
2021/01/19 14:22:54;;;;;;;;;;;5.70;99.90;;;;;;5034848;28;19925;-65
2021/01/19 14:25:20;;;;;;;;;;;5.70;99.90;;;;;;5035207;28;19928;-65
2021/01/19 14:27:46;;;;;;;;;;;5.70;99.90;;;;;;5034946;28;19921;-64
2021/01/19 14:30:13;;;;;;;;;;;5.80;99.90;;;;;;5034362;28;20379;-65
2021/01/19 14:32:43;;;;;;;;;;;5.80;99.90;;;;;;5034160;28;19933;-65
2021/01/19 14:35:10;;;;;;;;;;;5.70;99.90;;;;;;5033742;28;21323;-62
2021/01/19 14:37:37;;;;;;;;;;;5.70;99.90;;;;;;5034538;28;19979;-63
2021/01/19 14:40:05;;;;;;;;;;;5.60;99.90;;;;;;5034495;28;20342;-64
2021/01/19 14:42:31;;;;;;;;;;;5.70;99.90;;;;;;5034389;28;19925;-64
2021/01/19 14:44:57;;;;;;;;;;;5.60;99.90;;;;;;5034321;28;19926;-64
2021/01/19 14:47:24;;;;;;;;;;;5.60;99.90;;;;;;5034763;28;19983;-64
2021/01/19 14:49:50;;;;;;;;;;;5.50;99.90;;;;;;5034913;28;19932;-64
2021/01/19 14:52:16;;;;;;;;;;;5.60;99.90;;;;;;5034238;28;19925;-64
2021/01/19 14:54:42;;;;;;;;;;;5.60;99.90;;;;;;5034471;28;19987;-64
2021/01/19 14:57:10;;;;;;;;;;;5.50;99.90;;;;;;5034317;28;19925;-64
2021/01/19 14:59:36;;;;;;;;;;;5.50;99.90;;;;;;5034373;28;19971;-64
2021/01/19 15:02:02;;;;;;;;;;;5.40;99.90;;;;;;5034052;28;20261;-64
2021/01/19 15:04:28;;;;;;;;;;;5.50;99.90;;;;;;5034482;28;20295;-64
2021/01/19 15:06:55;;;;;;;;;;;5.50;99.90;;;;;;5034296;28;19940;-65
2021/01/19 15:09:22;;;;;;;;;;;5.60;99.90;;;;;;5034138;28;19933;-65
2021/01/19 15:11:49;;;;;;;;;;;5.60;99.90;;;;;;5034185;28;19925;-65
2021/01/19 15:14:16;;;;;;;;;;;5.60;99.90;;;;;;5034985;28;19952;-65
2021/01/19 15:16:42;;;;;;;;;;;5.60;99.90;;;;;;5036878;28;19932;-65
2021/01/19 15:19:08;;;;;;;;;;;5.50;99.90;;;;;;5039246;28;19925;-65
2021/01/19 15:21:34;;;;;;;;;;;5.50;99.90;;;;;;5046545;28;19925;-64
2021/01/19 15:24:00;;;;;;;;;;;5.50;99.90;;;;;;5044165;28;19929;-65
2021/01/19 15:26:26;;;;;;;;;;;5.50;99.90;;;;;;5039123;28;19925;-64
2021/01/19 15:28:52;;;;;;;;;;;5.50;99.90;;;;;;5038930;28;19929;-63
2021/01/19 15:31:19;;;;;;;;;;;5.50;99.90;;;;;;5037848;28;20453;-63
2021/01/19 15:33:45;;;;;;;;;;;5.60;99.90;;;;;;5038694;28;19948;-64
2021/01/19 15:36:16;;;;;;;;;;;5.60;99.90;;;;;;5043416;28;20296;-65
2021/01/19 15:38:42;;;;;;;;;;;5.60;99.90;;;;;;5041519;28;19974;-63
2021/01/19 15:41:14;;;;;;;;;;;5.60;99.90;;;;;;5039946;28;19979;-63
2021/01/19 15:43:41;;;;;;;;;;;5.70;99.90;;;;;;5039100;28;19944;-63
2021/01/19 15:46:07;;;;;;;;;;;5.60;99.90;;;;;;5038133;28;20334;-65
2021/01/19 15:48:34;;;;;;;;;;;5.70;99.90;;;;;;5037420;28;20383;-64
2021/01/19 15:51:00;;;;;;;;;;;5.70;99.90;;;;;;5037692;28;19925;-65
2021/01/19 15:53:26;;;;;;;;;;;5.90;99.90;;;;;;5037739;28;19932;-65
2021/01/19 15:55:52;;;;;;;;;;;5.90;99.90;;;;;;5037473;28;19926;-63
2021/01/19 15:58:18;;;;;;;;;;;5.90;99.90;;;;;;5036893;28;20411;-63
2021/01/19 16:00:44;;;;;;;;;;;5.90;99.90;;;;;;5036892;28;19925;-64
2021/01/19 16:03:11;;;;;;;;;;;6.00;99.90;;;;;;5037024;28;19951;-64
2021/01/19 16:05:37;;;;;;;;;;;6.00;99.90;;;;;;5036631;28;20380;-64
2021/01/19 16:08:04;;;;;;;;;;;6.00;99.90;;;;;;5037143;28;19933;-61
2021/01/19 16:10:30;;;;;;;;;;;6.00;99.90;;;;;;5037176;28;20296;-62
2021/01/19 16:12:56;;;;;;;;;;;6.00;99.90;;;;;;5037264;28;19925;-61
2021/01/19 16:15:22;;;;;;;;;;;6.10;99.90;;;;;;5037025;28;19925;-62
2021/01/19 16:17:48;;;;;;;;;;;6.00;99.90;;;;;;5037541;28;19960;-63
2021/01/19 16:20:14;;;;;;;;;;;5.80;99.90;;;;;;5037097;28;19929;-62
2021/01/19 16:22:42;;;;;;;;;;;5.80;99.90;;;;;;5036952;28;19940;-63
2021/01/19 16:25:09;;;;;;;;;;;5.80;99.90;;;;;;5036831;28;19924;-63
2021/01/19 16:27:35;;;;;;;;;;;5.90;99.90;;;;;;5035647;28;19936;-63
2021/01/19 16:30:01;;;;;;;;;;;5.90;99.90;;;;;;5036442;28;19925;-63
2021/01/19 16:32:27;;;;;;;;;;;5.90;99.90;;;;;;5036844;28;19925;-63
2021/01/19 16:34:53;;;;;;;;;;;5.90;99.90;;;;;;5036713;28;19925;-62
2021/01/19 16:37:20;;;;;;;;;;;5.90;99.90;;;;;;5036690;28;19971;-63
2021/01/19 16:39:46;;;;;;;;;;;5.90;99.90;;;;;;5036737;28;19925;-62
2021/01/19 16:42:12;;;;;;;;;;;5.90;99.90;;;;;;5036716;28;19971;-63
2021/01/19 16:44:38;;;;;;;;;;;6.00;99.90;;;;;;5036731;28;19932;-63
2021/01/19 16:47:05;;;;;;;;;;;5.90;99.90;;;;;;5037044;28;19925;-63
2021/01/19 16:49:31;;;;;;;;;;;5.90;99.90;;;;;;5037129;28;19925;-63
2021/01/19 16:51:57;;;;;;;;;;;5.90;99.90;;;;;;5038135;28;19925;-63
2021/01/19 16:54:23;;;;;;;;;;;6.00;99.90;;;;;;5049162;28;19925;-63
2021/01/19 16:56:50;;;;;;;;;;;5.90;99.90;;;;;;5036139;28;19925;-63
2021/01/19 16:59:16;;;;;;;;;;;6.00;99.90;;;;;;5036267;28;19925;-62
2021/01/19 17:01:42;;;;;;;;;;;6.00;99.90;;;;;;5036014;28;19925;-64
2021/01/19 17:04:08;;;;;;;;;;;6.00;99.90;;;;;;5036205;28;19925;-63
2021/01/19 17:06:34;;;;;;;;;;;6.00;99.90;;;;;;5036047;28;19936;-63
2021/01/19 17:09:03;;;;;;;;;;;6.10;99.90;;;;;;5054195;22;19949;-60
2021/01/19 17:11:29;;;;;;;;;;;6.10;99.90;;;;;;5038693;28;19967;-60
2021/01/19 17:13:56;;;;;;;;;;;6.10;99.90;;;;;;5040194;28;19952;-60
2021/01/19 17:16:22;;;;;;;;;;;6.10;99.90;;;;;;5039435;28;20398;-62
2021/01/19 17:18:48;;;;;;;;;;;6.10;99.90;;;;;;5038580;28;19948;-64
2021/01/19 17:21:14;;;;;;;;;;;6.10;99.90;;;;;;5036214;28;19992;-60
2021/01/19 17:23:40;;;;;;;;;;;6.20;99.90;;;;;;5035967;28;19925;-62
2021/01/19 17:26:06;;;;;;;;;;;6.10;99.90;;;;;;5036012;28;19933;-62
2021/01/19 17:28:32;;;;;;;;;;;6.10;99.90;;;;;;5036457;28;19925;-63
2021/01/19 17:30:59;;;;;;;;;;;6.10;99.90;;;;;;5036779;28;19925;-61
2021/01/19 17:33:26;;;;;;;;;;;6.10;99.90;;;;;;5036304;28;19926;-62
2021/01/19 17:35:52;;;;;;;;;;;6.20;99.90;;;;;;5036209;28;19924;-61
2021/01/19 17:38:18;;;;;;;;;;;6.20;99.90;;;;;;5036346;28;19976;-61
2021/01/19 17:40:46;;;;;;;;;;;6.20;99.90;;;;;;5036312;28;20442;-61
2021/01/19 17:43:13;;;;;;;;;;;6.30;99.90;;;;;;5038390;28;19932;-62
2021/01/19 17:45:40;;;;;;;;;;;6.30;99.90;;;;;;5035345;28;20345;-63
2021/01/19 17:48:07;;;;;;;;;;;6.30;99.90;;;;;;5035674;28;20027;-62
2021/01/19 17:50:35;;;;;;;;;;;6.30;99.90;;;;;;5035690;28;19932;-62
2021/01/19 17:53:02;;;;;;;;;;;6.30;99.90;;;;;;5035667;28;20012;-62
2021/01/19 17:55:28;;;;;;;;;;;6.30;99.90;;;;;;5036025;28;19925;-61
2021/01/19 17:57:54;;;;;;;;;;;6.30;99.90;;;;;;5035654;28;19932;-61
2021/01/19 18:00:20;;;;;;;;;;;6.30;99.90;;;;;;5036153;28;19925;-62
2021/01/19 18:02:48;;;;;;;;;;;6.20;99.90;;;;;;5035756;28;19929;-62
2021/01/19 18:05:15;;;;;;;;;;;6.30;99.90;;;;;;5035813;28;19926;-62
2021/01/19 18:07:41;;;;;;;;;;;6.40;99.90;;;;;;5036583;28;19925;-62
2021/01/19 18:10:08;;;;;;;;;;;6.30;99.90;;;;;;5036526;28;19925;-62
2021/01/19 18:12:34;;;;;;;;;;;6.40;99.90;;;;;;5036933;28;20269;-63
2021/01/19 18:15:01;;;;;;;;;;;6.40;99.90;;;;;;5036125;28;19925;-62
2021/01/19 18:17:27;;;;;;;;;;;6.30;99.90;;;;;;5035535;28;20396;-61
2021/01/19 18:19:53;;;;;;;;;;;6.20;99.90;;;;;;5036320;28;19924;-62
2021/01/19 18:22:20;;;;;;;;;;;6.10;99.90;;;;;;5043873;28;19947;-62
2021/01/19 18:24:47;;;;;;;;;;;6.10;99.90;;;;;;5053948;28;19925;-63
2021/01/19 18:27:13;;;;;;;;;;;6.00;99.90;;;;;;5054477;28;19932;-62
2021/01/19 18:29:39;;;;;;;;;;;6.00;99.90;;;;;;5054977;28;19925;-62
2021/01/19 18:32:06;;;;;;;;;;;6.00;99.90;;;;;;5045772;28;19929;-62
2021/01/19 18:34:33;;;;;;;;;;;5.90;99.90;;;;;;5040866;28;19925;-62
2021/01/19 18:37:01;;;;;;;;;;;5.90;99.90;;;;;;5038551;28;19925;-63
2021/01/19 18:39:29;;;;;;;;;;;5.90;99.90;;;;;;5036445;28;20035;-62
2021/01/19 18:41:57;;;;;;;;;;;5.90;99.90;;;;;;5035314;28;20300;-61
2021/01/19 18:44:23;;;;;;;;;;;5.90;99.90;;;;;;5035100;28;19975;-63
2021/01/19 18:46:52;;;;;;;;;;;5.90;99.90;;;;;;5038927;28;19932;-62
2021/01/19 18:49:18;;;;;;;;;;;5.90;99.90;;;;;;5044408;28;19925;-62
2021/01/19 18:51:44;;;;;;;;;;;6.00;99.90;;;;;;5052624;28;19925;-63
2021/01/19 18:54:10;;;;;;;;;;;6.00;99.90;;;;;;5056460;28;19935;-62
2021/01/19 18:56:37;;;;;;;;;;;6.10;99.90;;;;;;5049941;28;19925;-63
2021/01/19 18:59:04;;;;;;;;;;;6.10;99.90;;;;;;5041786;28;19952;-63
2021/01/19 19:01:30;;;;;;;;;;;6.00;99.90;;;;;;5043374;28;20391;-63
2021/01/19 19:03:56;;;;;;;;;;;6.00;99.90;;;;;;5035524;28;19979;-62
2021/01/19 19:06:23;;;;;;;;;;;6.10;99.90;;;;;;5036065;28;19925;-62
2021/01/19 19:08:50;;;;;;;;;;;6.00;99.90;;;;;;5035628;28;20012;-62
2021/01/19 19:11:22;;;;;;;;;;;6.10;99.90;;;;;;5035005;28;19925;-62
2021/01/19 19:13:49;;;;;;;;;;;6.20;99.90;;;;;;5035054;28;19925;-62
2021/01/19 19:16:15;;;;;;;;;;;6.20;99.90;;;;;;5034575;28;19929;-63
2021/01/19 19:18:41;;;;;;;;;;;6.10;99.90;;;;;;5034616;28;19932;-62
2021/01/19 19:21:07;;;;;;;;;;;6.00;99.90;;;;;;5034657;28;19929;-63
2021/01/19 19:23:33;;;;;;;;;;;6.00;99.90;;;;;;5034844;28;20375;-62
2021/01/19 19:25:59;;;;;;;;;;;5.90;99.90;;;;;;5034662;28;19925;-63
2021/01/19 19:28:25;;;;;;;;;;;5.90;99.90;;;;;;5034763;28;20013;-62
2021/01/19 19:30:52;;;;;;;;;;;5.80;99.90;;;;;;5034553;28;20483;-63
2021/01/19 19:33:18;;;;;;;;;;;5.80;99.90;;;;;;5035614;28;19925;-63